createdAt,value
2022-08-07T00:00:39.761Z,12.46
2022-08-07T00:03:08.780Z,12.34
2022-08-07T00:05:36.364Z,12.29
2022-08-07T00:08:04.873Z,12.41
2022-08-07T00:10:31.897Z,12.44
2022-08-07T00:13:02.140Z,12.44
2022-08-07T00:15:38.501Z,12.44
2022-08-07T00:18:18.877Z,12.40
2022-08-07T00:20:47.757Z,12.34
2022-08-07T00:23:14.713Z,12.33
2022-08-07T00:25:45.822Z,12.32
2022-08-07T00:28:21.995Z,12.27
2022-08-07T00:30:49.040Z,12.20
2022-08-07T00:33:15.910Z,12.17
2022-08-07T00:35:46.529Z,12.10
2022-08-07T00:38:16.377Z,12.01
2022-08-07T00:40:58.711Z,12.00
2022-08-07T00:43:59.326Z,11.97
2022-08-07T00:46:14.325Z,12.02
2022-08-07T00:48:42.068Z,12.04
2022-08-07T00:51:09.623Z,12.04
2022-08-07T00:53:38.878Z,12.04
2022-08-07T00:56:17.354Z,12.02
2022-08-07T00:58:46.786Z,12.00
2022-08-07T01:01:14.949Z,11.97
2022-08-07T01:03:56.313Z,11.95
2022-08-07T01:06:28.221Z,11.92
2022-08-07T01:08:56.386Z,11.86
2022-08-07T01:12:27.909Z,11.83
2022-08-07T01:14:12.682Z,11.84
2022-08-07T01:16:43.312Z,11.80
2022-08-07T01:19:19.165Z,11.79
2022-08-07T01:21:53.399Z,11.78
2022-08-07T01:24:25.641Z,11.76
2022-08-07T01:26:53.751Z,11.77
2022-08-07T01:29:27.700Z,11.81
2022-08-07T01:31:55.859Z,11.80
2022-08-07T01:34:30.786Z,11.85
2022-08-07T01:37:00.282Z,11.84
2022-08-07T01:39:40.603Z,11.81
2022-08-07T01:42:38.729Z,11.72
2022-08-07T01:45:18.100Z,11.73
2022-08-07T01:48:19.572Z,11.71
2022-08-07T01:50:43.262Z,11.69
2022-08-07T01:53:20.978Z,11.64
2022-08-07T01:55:58.260Z,11.63
2022-08-07T01:58:29.807Z,11.58
2022-08-07T02:01:25.465Z,11.55
2022-08-07T02:03:57.799Z,11.48
2022-08-07T02:06:30.760Z,11.40
2022-08-07T02:09:01.663Z,11.38
2022-08-07T02:12:03.268Z,11.34
2022-08-07T02:14:40.215Z,11.31
2022-08-07T02:17:10.908Z,11.27
2022-08-07T02:20:04.874Z,11.19
2022-08-07T02:22:26.986Z,11.11
2022-08-07T02:24:55.808Z,11.05
2022-08-07T02:27:23.846Z,10.99
2022-08-07T02:29:54.517Z,10.92
2022-08-07T02:32:27.015Z,10.79
2022-08-07T02:34:57.516Z,10.71
2022-08-07T02:37:27.323Z,10.68
2022-08-07T02:40:31.077Z,10.69
2022-08-07T02:42:51.817Z,10.71
2022-08-07T02:46:00.479Z,10.67
2022-08-07T02:48:10.172Z,10.61
2022-08-07T02:50:42.531Z,10.59
2022-08-07T02:53:11.622Z,10.52
2022-08-07T02:56:04.287Z,10.56
2022-08-07T02:58:33.466Z,10.59
2022-08-07T03:01:02.115Z,10.57
2022-08-07T03:03:49.984Z,10.58
2022-08-07T03:06:25.646Z,10.62
2022-08-07T03:09:00.714Z,10.60
2022-08-07T03:11:28.463Z,10.61
2022-08-07T03:13:57.676Z,10.57
2022-08-07T03:16:30.544Z,10.57
2022-08-07T03:19:01.246Z,10.56
2022-08-07T03:21:28.502Z,10.58
2022-08-07T03:24:20.558Z,10.61
2022-08-07T03:26:58.479Z,10.58
2022-08-07T03:29:29.320Z,10.65
2022-08-07T03:31:57.098Z,10.63
2022-08-07T03:34:27.535Z,10.63
2022-08-07T03:36:59.672Z,10.63
2022-08-07T03:39:46.288Z,10.63
2022-08-07T03:42:16.885Z,10.62
2022-08-07T03:44:47.209Z,10.62
2022-08-07T03:47:21.224Z,10.61
2022-08-07T03:49:52.318Z,10.59
2022-08-07T03:52:27.635Z,10.54
2022-08-07T03:54:59.176Z,10.50
2022-08-07T03:58:35.343Z,10.46
2022-08-07T04:00:29.229Z,10.41
2022-08-07T04:03:03.935Z,10.36
2022-08-07T04:05:39.617Z,10.31
2022-08-07T04:08:18.378Z,10.24
2022-08-07T04:10:54.741Z,10.20
2022-08-07T04:14:10.700Z,10.11
2022-08-07T04:16:30.080Z,10.09
2022-08-07T04:19:01.587Z,10.08
2022-08-07T04:21:33.570Z,10.07
2022-08-07T04:24:07.281Z,10.01
2022-08-07T04:26:35.592Z,9.99
2022-08-07T04:29:03.300Z,10.03
2022-08-07T04:31:38.982Z,10.05
2022-08-07T04:34:27.434Z,10.02
2022-08-07T04:37:01.233Z,10.18
2022-08-07T04:39:28.465Z,10.42
2022-08-07T04:42:03.898Z,10.50
2022-08-07T04:44:32.527Z,10.68
2022-08-07T04:47:08.096Z,10.88
2022-08-07T04:50:03.583Z,11.02
2022-08-07T04:52:51.046Z,11.09
2022-08-07T04:58:11.156Z,11.38
2022-08-07T04:58:47.282Z,11.58
2022-08-07T05:01:14.427Z,11.74
2022-08-07T05:04:07.132Z,12.08
2022-08-07T05:06:51.228Z,12.30
2022-08-07T05:09:46.974Z,12.45
2022-08-07T05:12:26.859Z,12.60
2022-08-07T05:15:03.297Z,12.80
2022-08-07T05:17:51.990Z,12.82
2022-08-07T05:20:22.392Z,13.08
2022-08-07T05:22:51.206Z,12.81
2022-08-07T05:25:25.760Z,12.45
2022-08-07T05:28:21.196Z,12.57
2022-08-07T05:30:52.232Z,13.05
2022-08-07T05:33:20.841Z,13.04
2022-08-07T05:35:52.705Z,13.26
2022-08-07T05:39:01.237Z,13.27
2022-08-07T05:41:14.327Z,13.48
2022-08-07T05:44:07.748Z,13.93
2022-08-07T05:46:34.847Z,13.94
2022-08-07T05:49:11.929Z,14.00
2022-08-07T05:51:46.623Z,14.31
2022-08-07T05:54:30.822Z,14.52
2022-08-07T05:57:01.082Z,14.52
2022-08-07T05:59:38.973Z,14.83
2022-08-07T06:02:28.436Z,15.29
2022-08-07T06:04:59.420Z,15.49
2022-08-07T06:08:14.135Z,15.56
2022-08-07T06:10:15.666Z,15.63
2022-08-07T06:12:44.506Z,15.72
2022-08-07T06:15:15.946Z,16.05
2022-08-07T06:17:53.325Z,16.17
2022-08-07T06:20:32.242Z,16.50
2022-08-07T06:23:46.558Z,16.87
2022-08-07T06:25:58.542Z,17.36
2022-08-07T06:28:28.093Z,17.62
2022-08-07T06:30:58.347Z,17.67
2022-08-07T06:33:26.389Z,17.90
2022-08-07T06:36:11.725Z,18.16
2022-08-07T06:38:59.569Z,18.23
2022-08-07T06:42:02.081Z,18.44
2022-08-07T06:44:51.216Z,18.85
2022-08-07T06:47:19.451Z,18.93
2022-08-07T06:49:51.971Z,19.18
2022-08-07T06:52:31.628Z,19.27
2022-08-07T06:55:32.412Z,19.09
2022-08-07T06:57:59.709Z,19.50
2022-08-07T07:00:32.561Z,19.23
2022-08-07T07:03:08.851Z,19.26
2022-08-07T07:06:03.134Z,19.35
2022-08-07T07:08:29.855Z,19.52
2022-08-07T07:11:00.990Z,19.58
2022-08-07T07:13:43.549Z,19.89
2022-08-07T07:16:23.794Z,19.91
2022-08-07T07:19:11.201Z,19.97
2022-08-07T07:22:05.053Z,19.92
2022-08-07T07:24:37.547Z,20.16
2022-08-07T07:27:05.804Z,20.58
2022-08-07T07:29:56.258Z,20.66
2022-08-07T07:32:23.437Z,20.77
2022-08-07T07:34:52.492Z,20.92
2022-08-07T07:37:45.075Z,21.10
2022-08-07T07:40:14.801Z,21.18
2022-08-07T07:42:43.477Z,21.32
2022-08-07T07:45:18.271Z,21.48
2022-08-07T07:47:52.509Z,21.47
2022-08-07T07:50:35.770Z,21.87
2022-08-07T07:53:20.363Z,22.14
2022-08-07T07:55:54.997Z,22.06
2022-08-07T07:58:30.749Z,22.42
2022-08-07T08:02:02.341Z,22.54
2022-08-07T08:04:09.522Z,22.43
2022-08-07T08:06:39.304Z,22.55
2022-08-07T08:09:07.067Z,23.10
2022-08-07T08:11:59.207Z,22.76
2022-08-07T08:14:26.413Z,23.30
2022-08-07T08:16:54.841Z,23.62
2022-08-07T08:20:18.825Z,23.90
2022-08-07T08:22:13.224Z,23.68
2022-08-07T08:24:45.305Z,23.21
2022-08-07T08:27:16.585Z,23.47
2022-08-07T08:29:56.022Z,23.59
2022-08-07T08:32:38.458Z,23.55
2022-08-07T08:35:08.027Z,23.45
2022-08-07T08:37:59.899Z,23.36
2022-08-07T08:40:30.268Z,23.69
2022-08-07T08:43:08.745Z,24.05
2022-08-07T08:45:59.154Z,24.00
2022-08-07T08:48:38.412Z,23.56
2022-08-07T08:51:49.180Z,23.52
2022-08-07T08:54:15.978Z,23.70
2022-08-07T08:56:47.911Z,23.62
2022-08-07T08:59:16.549Z,23.97
2022-08-07T09:01:53.822Z,24.45
2022-08-07T09:04:36.649Z,24.01
2022-08-07T09:07:11.295Z,24.28
2022-08-07T09:09:47.454Z,24.66
2022-08-07T09:12:32.253Z,24.96
2022-08-07T09:16:22.695Z,24.55
2022-08-07T09:18:15.895Z,24.72
2022-08-07T09:20:58.448Z,24.73
2022-08-07T09:24:28.589Z,24.54
2022-08-07T09:26:31.223Z,24.38
2022-08-07T09:30:06.614Z,24.32
2022-08-07T09:32:18.554Z,24.70
2022-08-07T09:34:54.698Z,25.09
2022-08-07T09:37:48.505Z,25.25
2022-08-07T09:40:21.028Z,25.61
2022-08-07T09:42:52.693Z,25.20
2022-08-07T09:47:24.222Z,24.50
2022-08-07T09:49:02.549Z,24.76
2022-08-07T09:52:15.901Z,25.06
2022-08-07T09:54:43.965Z,25.09
2022-08-07T09:57:29.786Z,25.39
2022-08-07T10:00:01.372Z,25.69
2022-08-07T10:03:08.377Z,26.17
2022-08-07T10:06:00.711Z,26.22
2022-08-07T10:08:49.638Z,26.31
2022-08-07T10:11:59.737Z,25.37
2022-08-07T10:14:35.849Z,25.24
2022-08-07T10:17:14.241Z,25.35
2022-08-07T10:19:43.267Z,25.67
2022-08-07T10:22:36.705Z,25.84
2022-08-07T10:25:22.589Z,25.87
2022-08-07T10:28:12.513Z,25.09
2022-08-07T10:30:51.404Z,25.36
2022-08-07T10:34:04.973Z,25.37
2022-08-07T10:36:14.047Z,25.45
2022-08-07T10:38:52.819Z,25.14
2022-08-07T10:41:45.958Z,24.57
2022-08-07T10:44:19.676Z,25.27
2022-08-07T10:47:05.804Z,25.77
2022-08-07T10:49:49.918Z,25.40
2022-08-07T10:52:33.968Z,25.38
2022-08-07T10:55:20.826Z,25.88
2022-08-07T10:57:56.291Z,26.29
2022-08-07T11:00:39.344Z,25.59
2022-08-07T11:03:37.643Z,25.78
2022-08-07T11:06:23.592Z,25.97
2022-08-07T11:09:03.051Z,25.72
2022-08-07T11:11:38.143Z,25.88
2022-08-07T11:14:56.823Z,25.87
2022-08-07T11:17:42.638Z,26.36
2022-08-07T11:20:09.818Z,25.89
2022-08-07T11:22:55.185Z,26.45
2022-08-07T11:25:36.105Z,25.53
2022-08-07T11:28:35.157Z,25.84
2022-08-07T11:31:08.891Z,25.53
2022-08-07T11:33:54.079Z,25.79
2022-08-07T11:36:45.870Z,26.13
2022-08-07T11:39:39.639Z,25.81
2022-08-07T11:42:21.870Z,26.13
2022-08-07T11:44:57.506Z,26.31
2022-08-07T11:47:39.154Z,26.17
2022-08-07T11:50:32.437Z,26.09
2022-08-07T11:53:18.797Z,26.56
2022-08-07T11:56:12.038Z,26.61
2022-08-07T11:58:35.666Z,26.82
2022-08-07T12:01:06.645Z,26.55
2022-08-07T12:03:53.995Z,26.51
2022-08-07T12:06:38.863Z,26.21
2022-08-07T12:09:16.098Z,26.02
2022-08-07T12:12:09.339Z,25.99
2022-08-07T12:14:52.756Z,25.97
2022-08-07T12:17:27.769Z,26.30
2022-08-07T12:20:29.761Z,26.21
2022-08-07T12:23:09.192Z,26.13
2022-08-07T12:26:03.448Z,26.36
2022-08-07T12:28:31.130Z,26.81
2022-08-07T12:31:03.401Z,26.78
2022-08-07T12:34:00.635Z,26.92
2022-08-07T12:36:19.500Z,26.98
2022-08-07T12:39:01.868Z,27.10
2022-08-07T12:41:49.242Z,26.80
2022-08-07T12:44:19.508Z,26.48
2022-08-07T12:47:00.133Z,26.70
2022-08-07T12:49:48.916Z,26.61
2022-08-07T12:52:33.876Z,26.28
2022-08-07T12:55:05.246Z,26.78
2022-08-07T12:57:59.198Z,26.58
2022-08-07T13:00:32.560Z,26.28
2022-08-07T13:03:06.762Z,26.19
2022-08-07T13:06:02.521Z,26.11
2022-08-07T13:08:36.378Z,26.16
2022-08-07T13:11:23.694Z,26.25
2022-08-07T13:13:50.570Z,26.78
2022-08-07T13:16:21.555Z,26.98
2022-08-07T13:18:56.896Z,26.86
2022-08-07T13:21:57.288Z,27.10
2022-08-07T13:24:29.445Z,26.86
2022-08-07T13:27:08.593Z,26.75
2022-08-07T13:29:42.511Z,26.80
2022-08-07T13:32:31.695Z,26.91
2022-08-07T13:35:03.270Z,27.06
2022-08-07T13:37:41.755Z,26.78
2022-08-07T13:40:36.819Z,26.90
2022-08-07T13:43:11.926Z,27.37
2022-08-07T13:46:11.831Z,26.82
2022-08-07T13:48:38.622Z,27.01
2022-08-07T13:51:26.970Z,27.27
2022-08-07T13:54:00.772Z,27.06
2022-08-07T13:56:40.762Z,27.65
2022-08-07T13:59:13.603Z,28.05
2022-08-07T14:01:51.391Z,27.79
2022-08-07T14:04:35.571Z,28.10
2022-08-07T14:07:09.168Z,28.13
2022-08-07T14:10:00.598Z,27.77
2022-08-07T14:12:30.571Z,27.48
2022-08-07T14:15:04.682Z,27.57
2022-08-07T14:18:23.445Z,27.52
2022-08-07T14:20:42.249Z,27.48
2022-08-07T14:23:59.232Z,27.17
2022-08-07T14:26:28.239Z,27.23
2022-08-07T14:29:10.640Z,27.63
2022-08-07T14:31:56.050Z,27.68
2022-08-07T14:34:29.640Z,28.01
2022-08-07T14:37:01.903Z,28.13
2022-08-07T14:40:17.665Z,27.61
2022-08-07T14:42:23.153Z,27.79
2022-08-07T14:44:53.073Z,27.42
2022-08-07T14:47:20.929Z,27.23
2022-08-07T14:52:38.436Z,27.75
2022-08-07T14:55:05.985Z,27.85
2022-08-07T14:57:58.186Z,28.06
2022-08-07T15:00:30.437Z,28.50
2022-08-07T15:03:16.710Z,29.04
2022-08-07T15:05:54.661Z,29.06
2022-08-07T15:08:35.450Z,29.17
2022-08-07T15:14:10.847Z,28.87
2022-08-07T15:16:54.783Z,28.87
2022-08-07T15:20:30.823Z,29.10
2022-08-07T15:22:29.394Z,28.90
2022-08-07T15:25:15.070Z,29.16
2022-08-07T15:28:32.930Z,29.50
2022-08-07T15:30:35.320Z,30.01
2022-08-07T15:33:05.502Z,30.08
2022-08-07T15:36:01.826Z,29.34
2022-08-07T15:44:12.462Z,29.76
2022-08-07T15:46:51.885Z,29.68
2022-08-07T15:49:25.250Z,29.67
2022-08-07T15:54:39.523Z,31.07
2022-08-07T15:57:27.655Z,30.05
2022-08-07T15:59:59.271Z,30.69
2022-08-07T16:02:28.123Z,31.15
2022-08-07T16:04:59.960Z,31.22
2022-08-07T16:08:31.005Z,30.87
2022-08-07T16:10:20.617Z,29.62
2022-08-07T16:13:01.108Z,29.24
2022-08-07T16:15:57.234Z,29.24
2022-08-07T16:18:50.475Z,28.40
2022-08-07T16:22:02.205Z,27.89
2022-08-07T16:24:35.430Z,27.84
2022-08-07T16:27:02.486Z,27.23
2022-08-07T16:30:10.656Z,27.03
2022-08-07T16:32:35.351Z,26.59
2022-08-07T16:35:56.925Z,26.60
2022-08-07T16:38:11.471Z,26.20
2022-08-07T16:41:02.156Z,26.20
2022-08-07T16:44:06.453Z,26.17
2022-08-07T16:50:20.466Z,25.88
2022-08-07T16:52:55.869Z,25.92
2022-08-07T16:55:47.105Z,25.81
2022-08-07T16:58:54.365Z,25.70
2022-08-07T17:01:41.338Z,25.55
2022-08-07T17:04:14.981Z,25.49
2022-08-07T17:07:10.291Z,25.34
2022-08-07T17:10:08.154Z,25.25
2022-08-07T17:12:44.620Z,25.10
2022-08-07T17:15:12.196Z,25.05
2022-08-07T17:17:49.161Z,24.88
2022-08-07T17:20:22.606Z,24.87
2022-08-07T17:23:02.426Z,24.72
2022-08-07T17:25:47.255Z,24.61
2022-08-07T17:28:23.759Z,24.58
2022-08-07T17:31:16.386Z,24.51
2022-08-07T17:34:15.400Z,24.42
2022-08-07T17:36:57.996Z,24.38
2022-08-07T17:39:58.436Z,24.28
2022-08-07T17:42:32.287Z,24.23
2022-08-07T17:44:59.157Z,24.16
2022-08-07T17:47:42.135Z,24.12
2022-08-07T17:50:21.961Z,24.06
2022-08-07T17:53:23.558Z,24.02
2022-08-07T17:56:15.227Z,24.00
2022-08-07T17:58:59.152Z,23.78
2022-08-07T18:01:36.635Z,23.86
2022-08-07T18:04:31.197Z,23.80
2022-08-07T18:07:20.095Z,23.77
2022-08-07T18:10:05.774Z,23.69
2022-08-07T18:12:40.949Z,23.69
2022-08-07T18:15:34.024Z,23.62
2022-08-07T18:18:45.243Z,23.66
2022-08-07T18:21:37.088Z,23.55
2022-08-07T18:24:09.054Z,23.54
2022-08-07T18:26:38.860Z,23.47
2022-08-07T18:30:05.335Z,23.37
2022-08-07T18:32:29.905Z,23.29
2022-08-07T18:35:15.735Z,23.15
2022-08-07T18:38:56.828Z,23.12
2022-08-07T18:40:56.395Z,23.07
2022-08-07T18:43:42.733Z,23.04
2022-08-07T18:46:26.827Z,22.93
2022-08-07T18:50:32.631Z,22.75
2022-08-07T18:52:34.311Z,22.62
2022-08-07T18:55:40.283Z,22.59
2022-08-07T18:57:59.489Z,22.47
2022-08-07T19:00:35.606Z,22.34
2022-08-07T19:03:11.609Z,22.26
2022-08-07T19:06:04.119Z,22.15
2022-08-07T19:08:40.765Z,21.95
2022-08-07T19:11:36.639Z,21.78
2022-08-07T19:14:11.826Z,21.65
2022-08-07T19:17:09.366Z,21.54
2022-08-07T19:19:49.773Z,21.41
2022-08-07T19:22:44.890Z,21.35
2022-08-07T19:25:13.402Z,21.25
2022-08-07T19:28:29.694Z,21.17
2022-08-07T19:30:55.809Z,21.09
2022-08-07T19:33:37.013Z,21.01
2022-08-07T19:36:04.585Z,20.99
2022-08-07T19:38:33.885Z,20.92
2022-08-07T19:41:01.966Z,20.87
2022-08-07T19:43:44.269Z,20.72
2022-08-07T19:46:19.058Z,20.73
2022-08-07T19:48:53.706Z,20.71
2022-08-07T19:51:50.994Z,20.70
2022-08-07T19:54:31.664Z,20.62
2022-08-07T19:58:00.479Z,20.53
2022-08-07T19:59:47.983Z,20.48
2022-08-07T20:02:20.956Z,20.40
2022-08-07T20:04:49.737Z,20.34
2022-08-07T20:07:23.673Z,20.24
2022-08-07T20:10:34.031Z,20.17
2022-08-07T20:12:43.217Z,19.97
2022-08-07T20:15:18.787Z,19.90
2022-08-07T20:18:01.324Z,19.69
2022-08-07T20:20:31.383Z,19.61
2022-08-07T20:23:01.364Z,19.50
2022-08-07T20:25:40.509Z,19.37
2022-08-07T20:28:17.829Z,19.24
2022-08-07T20:30:49.135Z,19.12
2022-08-07T20:33:36.845Z,18.96
2022-08-07T20:36:06.645Z,18.80
2022-08-07T20:38:34.960Z,18.66
2022-08-07T20:41:03.728Z,18.51
2022-08-07T20:43:34.907Z,18.36
2022-08-07T20:46:28.847Z,18.30
2022-08-07T20:49:53.995Z,18.16
2022-08-07T20:51:40.590Z,18.05
2022-08-07T20:54:29.625Z,17.97
2022-08-07T20:57:00.589Z,17.87
2022-08-07T21:00:06.501Z,17.79
2022-08-07T21:02:23.142Z,17.72
2022-08-07T21:04:54.731Z,17.65
2022-08-07T21:07:24.917Z,17.54
2022-08-07T21:09:59.086Z,17.42
2022-08-07T21:12:31.078Z,17.33
2022-08-07T21:14:59.343Z,17.22
2022-08-07T21:18:02.149Z,17.14
2022-08-07T21:20:29.820Z,17.04
2022-08-07T21:22:58.323Z,16.88
2022-08-07T21:25:43.729Z,16.77
2022-08-07T21:28:18.947Z,16.63
2022-08-07T21:31:08.255Z,16.54
2022-08-07T21:33:50.926Z,16.44
2022-08-07T21:36:31.915Z,16.33
2022-08-07T21:39:46.279Z,16.20
2022-08-07T21:42:04.796Z,16.05
2022-08-07T21:44:51.076Z,15.93
2022-08-07T21:47:25.879Z,15.86
2022-08-07T21:50:02.675Z,15.79
2022-08-07T21:52:49.088Z,15.76
2022-08-07T21:55:29.838Z,15.62
2022-08-07T21:58:00.182Z,15.55
2022-08-07T22:00:31.085Z,15.48
2022-08-07T22:03:06.580Z,15.44
2022-08-07T22:05:45.189Z,15.35
2022-08-07T22:08:18.967Z,15.29
2022-08-07T22:10:48.366Z,15.25
2022-08-07T22:13:16.610Z,15.25
2022-08-07T22:16:38.624Z,15.18
2022-08-07T22:18:37.291Z,15.13
2022-08-07T22:21:11.504Z,15.12
2022-08-07T22:23:54.709Z,15.15
2022-08-07T22:26:23.857Z,15.14
2022-08-07T22:28:53.160Z,15.12
2022-08-07T22:31:59.177Z,15.10
2022-08-07T22:34:13.673Z,15.14
2022-08-07T22:36:52.623Z,15.19
2022-08-07T22:39:26.517Z,15.16
2022-08-07T22:42:19.265Z,15.11
2022-08-07T22:44:59.094Z,15.00
2022-08-07T22:47:40.055Z,15.03
2022-08-07T22:50:36.215Z,15.15
2022-08-07T22:53:05.821Z,15.25
2022-08-07T22:55:37.161Z,15.20
2022-08-07T22:58:06.748Z,15.12
2022-08-07T23:00:42.540Z,15.06
2022-08-07T23:03:15.450Z,14.99
2022-08-07T23:06:15.704Z,14.95
2022-08-07T23:10:06.206Z,14.87
2022-08-07T23:12:10.804Z,14.79
2022-08-07T23:15:06.132Z,14.69
2022-08-07T23:17:48.849Z,14.67
2022-08-07T23:20:18.424Z,14.57
2022-08-07T23:23:05.145Z,14.53
2022-08-07T23:25:48.707Z,14.41
2022-08-07T23:28:34.343Z,14.39
2022-08-07T23:31:13.873Z,14.39
2022-08-07T23:34:21.611Z,14.41
2022-08-07T23:37:19.928Z,14.37
2022-08-07T23:39:42.279Z,14.33
2022-08-07T23:42:09.111Z,14.26
2022-08-07T23:45:03.382Z,14.21
2022-08-07T23:47:48.021Z,14.15
2022-08-07T23:50:17.892Z,14.08
2022-08-07T23:53:11.876Z,14.04
2022-08-07T23:55:52.413Z,13.97
2022-08-07T23:58:26.099Z,13.97
